Texas City — WDD4983 — position and weather

sailwx.info

Track history (hours):
 
Tides and Currents Weather Stations Pressure Air Temp Water Temp Dewpoint Dewpoint Depression Visibility Wind Speed Wind Dir Waves Ship Positions

Texas City

Owner: Marathon Petroleum Company LP, Findlay, OH. More information available from US FCC via Universal Licensing System and Coast Guard Vessel Documentation Center.

Last reported at 2014-Oct-21 03:30 UTC. Time now 2014-Oct-21 03:55 UTC.
Position N 30°03' W 090°35'.

Length 28 m; draft 3 m.

Type: Tug. MMSI: 367135470.

Date/timePositionNaut miles runAvg speedWind from/ knotsBaromVisibWave heightAir tempDewpointWater temp
2014-Oct-21 03:30N 30°03' W 090°35'  
2014-Oct-18 09:07N 30°09' W 090°60'0 0.0
2014-Oct-17 05:26N 30°09' W 090°60'0 0.0
2014-Oct-17 04:33N 30°09' W 090°60'0 0.0
2014-Oct-16 13:14N 30°09' W 090°60'0 0.0
2014-Oct-16 12:33N 30°09' W 090°60'0 0.0
2014-Oct-16 11:30N 30°09' W 090°60'0 0.0
2014-Oct-16 10:25N 30°09' W 090°60'0 0.0
2014-Oct-16 09:32N 30°09' W 090°60'0 0.0
2014-Oct-16 08:24N 30°09' W 090°60'0 0.0
2014-Oct-16 07:19N 30°09' W 090°60'0 0.0
2014-Oct-16 06:33N 30°09' W 090°60'0 0.0
2014-Oct-16 05:24N 30°09' W 090°60'0 0.0
2014-Oct-15 13:05N 30°09' W 090°60'0 0.0
2014-Oct-15 12:32N 30°09' W 090°60'0 0.0
2014-Oct-15 11:33N 30°09' W 090°60'0 0.0
2014-Oct-15 10:33N 30°09' W 090°60'0 0.0
2014-Oct-15 09:17N 30°09' W 090°60'0 0.0
2014-Oct-15 08:33N 30°09' W 090°60'0 0.0
2014-Oct-15 07:33N 30°09' W 090°60'0 0.0
2014-Oct-15 06:33N 30°09' W 090°60'0 0.0
2014-Oct-15 05:32N 30°09' W 090°60'  
2014-Oct-12 10:10N 30°05' W 090°54'20 4.1
2014-Oct-12 05:13N 30°03' W 090°31'5 5.9
2014-Oct-12 04:19N 29°60' W 090°26'3 3.7
2014-Oct-12 03:32N 29°58' W 090°24'0 0.2
2014-Oct-12 02:33N 29°58' W 090°24'  
Track history (hours):
 
Tides and Currents Weather Stations Pressure Air Temp Water Temp Dewpoint Dewpoint Depression Visibility Wind Speed Wind Dir Waves Ship Positions

Texas City

Owner: Marathon Petroleum Company LP, Findlay, OH. More information available from US FCC via Universal Licensing System and Coast Guard Vessel Documentation Center.

Last reported at 2014-Oct-21 03:30 UTC. Time now 2014-Oct-21 03:55 UTC.
Position N 30°03' W 090°35'.

Length 28 m; draft 3 m.

Type: Tug. MMSI: 367135470.

Date/timePositionNaut miles runAvg speedWind from/ knotsBaromVisibWave heightAir tempDewpointWater temp
2014-Oct-21 03:30N 30°03' W 090°35'  
2014-Oct-18 09:07N 30°09' W 090°60'0 0.0
2014-Oct-17 05:26N 30°09' W 090°60'0 0.0
2014-Oct-17 04:33N 30°09' W 090°60'0 0.0
2014-Oct-16 13:14N 30°09' W 090°60'0 0.0
2014-Oct-16 12:33N 30°09' W 090°60'0 0.0
2014-Oct-16 11:30N 30°09' W 090°60'0 0.0
2014-Oct-16 10:25N 30°09' W 090°60'0 0.0
2014-Oct-16 09:32N 30°09' W 090°60'0 0.0
2014-Oct-16 08:24N 30°09' W 090°60'0 0.0
2014-Oct-16 07:19N 30°09' W 090°60'0 0.0
2014-Oct-16 06:33N 30°09' W 090°60'0 0.0
2014-Oct-16 05:24N 30°09' W 090°60'0 0.0
2014-Oct-15 13:05N 30°09' W 090°60'0 0.0
2014-Oct-15 12:32N 30°09' W 090°60'0 0.0
2014-Oct-15 11:33N 30°09' W 090°60'0 0.0
2014-Oct-15 10:33N 30°09' W 090°60'0 0.0
2014-Oct-15 09:17N 30°09' W 090°60'0 0.0
2014-Oct-15 08:33N 30°09' W 090°60'0 0.0
2014-Oct-15 07:33N 30°09' W 090°60'0 0.0
2014-Oct-15 06:33N 30°09' W 090°60'0 0.0
2014-Oct-15 05:32N 30°09' W 090°60'  
2014-Oct-12 10:10N 30°05' W 090°54'20 4.1
2014-Oct-12 05:13N 30°03' W 090°31'5 5.9
2014-Oct-12 04:19N 29°60' W 090°26'3 3.7
2014-Oct-12 03:32N 29°58' W 090°24'0 0.2
2014-Oct-12 02:33N 29°58' W 090°24'  

Dump ship's entire track history